sensor_id;sensor_type;location;lat;lon;timestamp;pressure;altitude;pressure_sealevel;temperature;humidity
43436;BME280;36399;51.444;-2.018;2024-01-07T00:01:22;101585.88;;;2.35;100.00
43436;BME280;36399;51.444;-2.018;2024-01-07T00:03:48;101588.69;;;2.38;100.00
43436;BME280;36399;51.444;-2.018;2024-01-07T00:06:14;101594.84;;;2.40;100.00
43436;BME280;36399;51.444;-2.018;2024-01-07T00:08:41;101595.03;;;2.43;100.00
43436;BME280;36399;51.444;-2.018;2024-01-07T00:11:07;101599.72;;;2.49;100.00
43436;BME280;36399;51.444;-2.018;2024-01-07T00:13:33;101604.81;;;2.61;100.00
43436;BME280;36399;51.444;-2.018;2024-01-07T00:15:59;101603.41;;;2.52;100.00
43436;BME280;36399;51.444;-2.018;2024-01-07T00:18:25;101609.38;;;2.51;100.00
43436;BME280;36399;51.444;-2.018;2024-01-07T00:20:53;101613.34;;;2.60;100.00
43436;BME280;36399;51.444;-2.018;2024-01-07T00:23:19;101609.56;;;2.54;100.00
43436;BME280;36399;51.444;-2.018;2024-01-07T00:25:48;101621.53;;;2.52;100.00
43436;BME280;36399;51.444;-2.018;2024-01-07T00:28:14;101623.13;;;2.50;100.00
43436;BME280;36399;51.444;-2.018;2024-01-07T00:30:40;101626.72;;;2.52;100.00
43436;BME280;36399;51.444;-2.018;2024-01-07T00:33:07;101628.50;;;2.53;100.00
43436;BME280;36399;51.444;-2.018;2024-01-07T00:35:33;101623.34;;;2.53;100.00
43436;BME280;36399;51.444;-2.018;2024-01-07T00:37:58;101629.41;;;2.54;100.00
43436;BME280;36399;51.444;-2.018;2024-01-07T00:40:25;101632.09;;;2.56;100.00
43436;BME280;36399;51.444;-2.018;2024-01-07T00:42:52;101631.19;;;2.55;100.00
43436;BME280;36399;51.444;-2.018;2024-01-07T00:45:18;101631.31;;;2.57;100.00
43436;BME280;36399;51.444;-2.018;2024-01-07T00:47:44;101623.44;;;2.55;100.00
43436;BME280;36399;51.444;-2.018;2024-01-07T00:50:10;101628.31;;;2.50;100.00
43436;BME280;36399;51.444;-2.018;2024-01-07T00:52:36;101635.09;;;2.48;100.00
43436;BME280;36399;51.444;-2.018;2024-01-07T00:55:04;101628.13;;;2.47;100.00
43436;BME280;36399;51.444;-2.018;2024-01-07T00:57:30;101632.91;;;2.54;100.00
43436;BME280;36399;51.444;-2.018;2024-01-07T00:59:56;101628.13;;;2.47;100.00
43436;BME280;36399;51.444;-2.018;2024-01-07T01:02:22;101628.94;;;2.46;100.00
43436;BME280;36399;51.444;-2.018;2024-01-07T01:04:48;101628.94;;;2.46;100.00
43436;BME280;36399;51.444;-2.018;2024-01-07T01:07:14;101632.31;;;2.45;100.00
43436;BME280;36399;51.444;-2.018;2024-01-07T01:09:40;101627.94;;;2.44;100.00
43436;BME280;36399;51.444;-2.018;2024-01-07T01:12:06;101633.22;;;2.46;100.00
43436;BME280;36399;51.444;-2.018;2024-01-07T01:14:32;101639.19;;;2.45;100.00
43436;BME280;36399;51.444;-2.018;2024-01-07T01:16:58;101640.09;;;2.45;100.00
43436;BME280;36399;51.444;-2.018;2024-01-07T01:19:24;101633.13;;;2.44;100.00
43436;BME280;36399;51.444;-2.018;2024-01-07T01:21:50;101639.91;;;2.42;100.00
43436;BME280;36399;51.444;-2.018;2024-01-07T01:24:16;101639.69;;;2.39;100.00
43436;BME280;36399;51.444;-2.018;2024-01-07T01:26:42;101640.59;;;2.40;100.00
43436;BME280;36399;51.444;-2.018;2024-01-07T01:29:08;101637.81;;;2.37;100.00
43436;BME280;36399;51.444;-2.018;2024-01-07T01:31:34;101636.81;;;2.35;100.00
43436;BME280;36399;51.444;-2.018;2024-01-07T01:34:00;101631.34;;;2.30;100.00
43436;BME280;36399;51.444;-2.018;2024-01-07T01:36:26;101631.94;;;2.26;100.00
43436;BME280;36399;51.444;-2.018;2024-01-07T01:38:52;101633.84;;;2.15;100.00
43436;BME280;36399;51.444;-2.018;2024-01-07T01:41:18;101629.72;;;2.06;100.00
43436;BME280;36399;51.444;-2.018;2024-01-07T01:43:44;101640.28;;;1.96;100.00
43436;BME280;36399;51.444;-2.018;2024-01-07T01:46:11;101637.69;;;1.82;100.00
43436;BME280;36399;51.444;-2.018;2024-01-07T01:48:39;101649.44;;;1.77;100.00
43436;BME280;36399;51.444;-2.018;2024-01-07T01:51:06;101652.59;;;1.73;100.00
43436;BME280;36399;51.444;-2.018;2024-01-07T01:53:33;101660.06;;;1.69;100.00
43436;BME280;36399;51.444;-2.018;2024-01-07T01:56:01;101656.75;;;1.58;100.00
43436;BME280;36399;51.444;-2.018;2024-01-07T01:58:30;101665.44;;;1.58;100.00
43436;BME280;36399;51.444;-2.018;2024-01-07T02:00:59;101658.31;;;1.56;100.00
43436;BME280;36399;51.444;-2.018;2024-01-07T02:03:25;101659.75;;;1.64;100.00
43436;BME280;36399;51.444;-2.018;2024-01-07T02:05:52;101666.84;;;1.67;100.00
43436;BME280;36399;51.444;-2.018;2024-01-07T02:08:19;101673.31;;;1.73;100.00
43436;BME280;36399;51.444;-2.018;2024-01-07T02:10:45;101680.28;;;1.74;100.00
43436;BME280;36399;51.444;-2.018;2024-01-07T02:13:11;101679.41;;;1.74;100.00
43436;BME280;36399;51.444;-2.018;2024-01-07T02:15:37;101684.09;;;1.79;100.00
43436;BME280;36399;51.444;-2.018;2024-01-07T02:18:03;101687.66;;;1.81;100.00
43436;BME280;36399;51.444;-2.018;2024-01-07T02:20:29;101692.66;;;1.92;100.00
43436;BME280;36399;51.444;-2.018;2024-01-07T02:22:55;101693.88;;;1.97;100.00
43436;BME280;36399;51.444;-2.018;2024-01-07T02:25:23;101695.78;;;1.99;100.00
43436;BME280;36399;51.444;-2.018;2024-01-07T02:27:49;101700.25;;;2.02;100.00
43436;BME280;36399;51.444;-2.018;2024-01-07T02:30:15;101700.56;;;2.06;100.00
43436;BME280;36399;51.444;-2.018;2024-01-07T02:32:41;101703.16;;;2.06;100.00
43436;BME280;36399;51.444;-2.018;2024-01-07T02:35:07;101706.63;;;2.07;100.00
43436;BME280;36399;51.444;-2.018;2024-01-07T02:37:34;101699.00;;;2.08;100.00
43436;BME280;36399;51.444;-2.018;2024-01-07T02:40:00;101702.47;;;2.09;100.00
43436;BME280;36399;51.444;-2.018;2024-01-07T02:42:26;101700.78;;;2.09;100.00
43436;BME280;36399;51.444;-2.018;2024-01-07T02:44:52;101712.94;;;2.10;100.00
43436;BME280;36399;51.444;-2.018;2024-01-07T02:47:18;101706.88;;;2.10;100.00
43436;BME280;36399;51.444;-2.018;2024-01-07T02:49:44;101706.06;;;2.11;100.00
43436;BME280;36399;51.444;-2.018;2024-01-07T02:52:10;101704.38;;;2.11;100.00
43436;BME280;36399;51.444;-2.018;2024-01-07T02:54:36;101708.56;;;2.09;100.00
43436;BME280;36399;51.444;-2.018;2024-01-07T02:57:02;101713.59;;;2.08;100.00
43436;BME280;36399;51.444;-2.018;2024-01-07T02:59:28;101712.94;;;2.10;100.00
43436;BME280;36399;51.444;-2.018;2024-01-07T03:01:54;101719.72;;;2.08;100.00
43436;BME280;36399;51.444;-2.018;2024-01-07T03:04:20;101719.72;;;2.08;100.00
43436;BME280;36399;51.444;-2.018;2024-01-07T03:06:46;101712.06;;;2.10;100.00
43436;BME280;36399;51.444;-2.018;2024-01-07T03:09:12;101712.25;;;2.13;100.00
43436;BME280;36399;51.444;-2.018;2024-01-07T03:11:41;101715.84;;;2.15;100.00
43436;BME280;36399;51.444;-2.018;2024-01-07T03:14:07;101713.34;;;2.16;100.00
43436;BME280;36399;51.444;-2.018;2024-01-07T03:16:33;101717.44;;;2.13;100.00
43436;BME280;36399;51.444;-2.018;2024-01-07T03:18:59;101722.41;;;2.10;100.00
43436;BME280;36399;51.444;-2.018;2024-01-07T03:21:25;101723.31;;;2.10;100.00
43436;BME280;36399;51.444;-2.018;2024-01-07T03:23:51;101720.63;;;2.09;100.00
43436;BME280;36399;51.444;-2.018;2024-01-07T03:26:19;101716.00;;;2.05;100.00
43436;BME280;36399;51.444;-2.018;2024-01-07T03:28:46;101722.88;;;2.04;100.00
43436;BME280;36399;51.444;-2.018;2024-01-07T03:31:13;101726.16;;;2.02;100.00
43436;BME280;36399;51.444;-2.018;2024-01-07T03:33:40;101728.63;;;2.00;100.00
43436;BME280;36399;51.444;-2.018;2024-01-07T03:36:11;101736.31;;;1.99;100.00
43436;BME280;36399;51.444;-2.018;2024-01-07T03:38:38;101732.13;;;2.01;100.00
43436;BME280;36399;51.444;-2.018;2024-01-07T03:41:04;101738.91;;;1.99;100.00
43436;BME280;36399;51.444;-2.018;2024-01-07T03:43:30;101738.09;;;2.00;100.00
43436;BME280;36399;51.444;-2.018;2024-01-07T03:45:57;101730.13;;;1.97;100.00
43436;BME280;36399;51.444;-2.018;2024-01-07T03:48:23;101731.44;;;2.03;100.00
43436;BME280;36399;51.444;-2.018;2024-01-07T03:50:49;101734.50;;;1.98;100.00
43436;BME280;36399;51.444;-2.018;2024-01-07T03:53:15;101732.13;;;2.01;100.00
43436;BME280;36399;51.444;-2.018;2024-01-07T03:55:42;101731.91;;;1.98;100.00
43436;BME280;36399;51.444;-2.018;2024-01-07T03:58:08;101744.66;;;1.95;100.00
43436;BME280;36399;51.444;-2.018;2024-01-07T04:00:34;101747.75;;;1.89;100.00
43436;BME280;36399;51.444;-2.018;2024-01-07T04:03:01;101749.53;;;1.90;100.00
43436;BME280;36399;51.444;-2.018;2024-01-07T04:05:27;101752.13;;;1.90;100.00
43436;BME280;36399;51.444;-2.018;2024-01-07T04:07:53;101745.25;;;1.90;100.00
43436;BME280;36399;51.444;-2.018;2024-01-07T04:10:19;101749.84;;;1.95;100.00
43436;BME280;36399;51.444;-2.018;2024-01-07T04:12:45;101749.03;;;1.96;100.00
43436;BME280;36399;51.444;-2.018;2024-01-07T04:15:12;101749.94;;;1.96;100.00
43436;BME280;36399;51.444;-2.018;2024-01-07T04:17:38;101754.22;;;1.96;100.00
43436;BME280;36399;51.444;-2.018;2024-01-07T04:20:05;101755.81;;;1.94;100.00
43436;BME280;36399;51.444;-2.018;2024-01-07T04:22:31;101764.38;;;1.93;100.00
43436;BME280;36399;51.444;-2.018;2024-01-07T04:24:57;101756.72;;;1.94;100.00
43436;BME280;36399;51.444;-2.018;2024-01-07T04:27:23;101766.19;;;1.94;100.00
43436;BME280;36399;51.444;-2.018;2024-01-07T04:29:51;101760.00;;;1.92;100.00
43436;BME280;36399;51.444;-2.018;2024-01-07T04:32:16;101760.78;;;1.90;100.00
43436;BME280;36399;51.444;-2.018;2024-01-07T04:34:43;101762.38;;;1.88;100.00
43436;BME280;36399;51.444;-2.018;2024-01-07T04:37:10;101769.34;;;1.89;100.00
43436;BME280;36399;51.444;-2.018;2024-01-07T04:39:36;101766.06;;;1.92;100.00
43436;BME280;36399;51.444;-2.018;2024-01-07T04:42:02;101768.38;;;2.01;100.00
43436;BME280;36399;51.444;-2.018;2024-01-07T04:44:28;101769.19;;;2.00;100.00
43436;BME280;36399;51.444;-2.018;2024-01-07T04:46:54;101766.78;;;2.03;100.00
43436;BME280;36399;51.444;-2.018;2024-01-07T04:49:20;101771.53;;;2.08;100.00
43436;BME280;36399;51.444;-2.018;2024-01-07T04:51:46;101772.63;;;2.12;100.00
43436;BME280;36399;51.444;-2.018;2024-01-07T04:54:12;101772.63;;;2.12;100.00
43436;BME280;36399;51.444;-2.018;2024-01-07T04:56:38;101775.41;;;2.15;100.00
43436;BME280;36399;51.444;-2.018;2024-01-07T04:59:04;101780.59;;;2.15;100.00
43436;BME280;36399;51.444;-2.018;2024-01-07T05:01:32;101790.38;;;2.19;100.00
43436;BME280;36399;51.444;-2.018;2024-01-07T05:03:58;101790.38;;;2.19;100.00
43436;BME280;36399;51.444;-2.018;2024-01-07T05:06:24;101787.28;;;2.25;100.00
43436;BME280;36399;51.444;-2.018;2024-01-07T05:08:50;101792.38;;;2.23;100.00
43436;BME280;36399;51.444;-2.018;2024-01-07T05:11:16;101797.56;;;2.23;100.00
43436;BME280;36399;51.444;-2.018;2024-01-07T05:13:42;101789.00;;;2.24;100.00
43436;BME280;36399;51.444;-2.018;2024-01-07T05:16:08;101792.47;;;2.25;100.00
43436;BME280;36399;51.444;-2.018;2024-01-07T05:18:34;101800.56;;;2.29;100.00
43436;BME280;36399;51.444;-2.018;2024-01-07T05:21:00;101806.75;;;2.31;100.00
43436;BME280;36399;51.444;-2.018;2024-01-07T05:23:26;101799.38;;;2.37;100.00
43436;BME280;36399;51.444;-2.018;2024-01-07T05:25:52;101800.16;;;2.36;100.00
43436;BME280;36399;51.444;-2.018;2024-01-07T05:28:18;101800.16;;;2.36;100.00
43436;BME280;36399;51.444;-2.018;2024-01-07T05:30:46;101804.56;;;2.37;100.00
43436;BME280;36399;51.444;-2.018;2024-01-07T05:33:12;101807.16;;;2.37;100.00
43436;BME280;36399;51.444;-2.018;2024-01-07T05:35:38;101806.25;;;2.37;100.00
43436;BME280;36399;51.444;-2.018;2024-01-07T05:38:04;101813.91;;;2.35;100.00
43436;BME280;36399;51.444;-2.018;2024-01-07T05:40:30;101817.50;;;2.37;100.00
43436;BME280;36399;51.444;-2.018;2024-01-07T05:42:56;101814.91;;;2.37;100.00
43436;BME280;36399;51.444;-2.018;2024-01-07T05:45:22;101808.94;;;2.38;100.00
43436;BME280;36399;51.444;-2.018;2024-01-07T05:47:48;101813.44;;;2.41;100.00
43436;BME280;36399;51.444;-2.018;2024-01-07T05:50:17;101807.34;;;2.40;100.00
43436;BME280;36399;51.444;-2.018;2024-01-07T05:52:45;101809.16;;;2.41;100.00
43436;BME280;36399;51.444;-2.018;2024-01-07T05:55:11;101812.84;;;2.45;100.00
43436;BME280;36399;51.444;-2.018;2024-01-07T05:57:36;101820.63;;;2.45;100.00
43436;BME280;36399;51.444;-2.018;2024-01-07T06:00:03;101825.69;;;2.43;100.00
43436;BME280;36399;51.444;-2.018;2024-01-07T06:02:29;101823.09;;;2.43;100.00
43436;BME280;36399;51.444;-2.018;2024-01-07T06:04:55;101827.69;;;2.47;100.00
43436;BME280;36399;51.444;-2.018;2024-01-07T06:07:21;101836.38;;;2.48;100.00
43436;BME280;36399;51.444;-2.018;2024-01-07T06:09:47;101830.78;;;2.42;100.00
43436;BME280;36399;51.444;-2.018;2024-01-07T06:12:14;101821.28;;;2.29;100.00
43436;BME280;36399;51.444;-2.018;2024-01-07T06:14:40;101827.53;;;2.19;100.00
43436;BME280;36399;51.444;-2.018;2024-01-07T06:17:09;101826.44;;;2.16;100.00
43436;BME280;36399;51.444;-2.018;2024-01-07T06:19:37;101833.41;;;2.17;100.00
43436;BME280;36399;51.444;-2.018;2024-01-07T06:22:03;101826.44;;;2.16;100.00
43436;BME280;36399;51.444;-2.018;2024-01-07T06:24:29;101831.41;;;2.13;100.00
43436;BME280;36399;51.444;-2.018;2024-01-07T06:26:55;101832.22;;;2.12;100.00
43436;BME280;36399;51.444;-2.018;2024-01-07T06:29:21;101833.91;;;2.11;100.00
43436;BME280;36399;51.444;-2.018;2024-01-07T06:31:47;101838.19;;;2.11;100.00
43436;BME280;36399;51.444;-2.018;2024-01-07T06:34:14;101837.50;;;2.13;100.00
43436;BME280;36399;51.444;-2.018;2024-01-07T06:36:41;101832.75;;;2.08;100.00
43436;BME280;36399;51.444;-2.018;2024-01-07T06:39:07;101840.41;;;2.06;100.00
43436;BME280;36399;51.444;-2.018;2024-01-07T06:41:34;101840.31;;;2.05;100.00
43436;BME280;36399;51.444;-2.018;2024-01-07T06:44:01;101858.91;;;2.11;100.00
43436;BME280;36399;51.444;-2.018;2024-01-07T06:46:30;101857.53;;;2.16;100.00
43436;BME280;36399;51.444;-2.018;2024-01-07T06:48:57;101855.94;;;2.18;100.00
43436;BME280;36399;51.444;-2.018;2024-01-07T06:51:22;101865.59;;;2.20;100.00
43436;BME280;36399;51.444;-2.018;2024-01-07T06:53:48;101868.50;;;2.25;100.00
43436;BME280;36399;51.444;-2.018;2024-01-07T06:56:16;101870.31;;;2.26;100.00
43436;BME280;36399;51.444;-2.018;2024-01-07T06:58:42;101873.91;;;2.28;100.00
43436;BME280;36399;51.444;-2.018;2024-01-07T07:01:08;101884.25;;;2.28;100.00
43436;BME280;36399;51.444;-2.018;2024-01-07T07:03:34;101896.44;;;2.29;100.00
43436;BME280;36399;51.444;-2.018;2024-01-07T07:06:00;101897.63;;;2.34;100.00
43436;BME280;36399;51.444;-2.018;2024-01-07T07:08:26;101895.75;;;2.32;100.00
43436;BME280;36399;51.444;-2.018;2024-01-07T07:10:52;101909.69;;;2.34;100.00
43436;BME280;36399;51.444;-2.018;2024-01-07T07:13:18;101905.41;;;2.34;100.00
43436;BME280;36399;51.444;-2.018;2024-01-07T07:15:47;101905.19;;;2.31;100.00
43436;BME280;36399;51.444;-2.018;2024-01-07T07:18:13;101917.38;;;2.32;100.00
43436;BME280;36399;51.444;-2.018;2024-01-07T07:20:39;101922.44;;;2.31;100.00
43436;BME280;36399;51.444;-2.018;2024-01-07T07:23:05;101924.34;;;2.33;100.00
43436;BME280;36399;51.444;-2.018;2024-01-07T07:25:31;101933.91;;;2.34;100.00
43436;BME280;36399;51.444;-2.018;2024-01-07T07:27:57;101938.50;;;2.38;100.00
43436;BME280;36399;51.444;-2.018;2024-01-07T07:30:23;101939.78;;;2.32;100.00
43436;BME280;36399;51.444;-2.018;2024-01-07T07:32:49;101954.00;;;2.25;100.00
43436;BME280;36399;51.444;-2.018;2024-01-07T07:35:15;101950.09;;;2.07;100.00
43436;BME280;36399;51.444;-2.018;2024-01-07T07:37:41;101957.22;;;1.98;100.00
43436;BME280;36399;51.444;-2.018;2024-01-07T07:40:07;101959.97;;;1.87;100.00
43436;BME280;36399;51.444;-2.018;2024-01-07T07:42:33;101956.94;;;1.81;100.00
43436;BME280;36399;51.444;-2.018;2024-01-07T07:44:59;101962.78;;;1.79;100.00
43436;BME280;36399;51.444;-2.018;2024-01-07T07:47:25;101969.22;;;1.72;100.00
43436;BME280;36399;51.444;-2.018;2024-01-07T07:49:51;101968.47;;;1.62;100.00
43436;BME280;36399;51.444;-2.018;2024-01-07T07:52:17;101974.28;;;1.47;100.00
43436;BME280;36399;51.444;-2.018;2024-01-07T07:54:47;101977.88;;;1.38;100.00
43436;BME280;36399;51.444;-2.018;2024-01-07T07:57:13;101974.97;;;1.21;100.00
43436;BME280;36399;51.444;-2.018;2024-01-07T07:59:39;101981.25;;;1.13;100.00
43436;BME280;36399;51.444;-2.018;2024-01-07T08:02:05;101973.84;;;1.06;100.00
43436;BME280;36399;51.444;-2.018;2024-01-07T08:04:31;101975.47;;;0.94;100.00
43436;BME280;36399;51.444;-2.018;2024-01-07T08:06:57;101971.63;;;0.89;100.00
43436;BME280;36399;51.444;-2.018;2024-01-07T08:09:23;101978.47;;;0.77;100.00
43436;BME280;36399;51.444;-2.018;2024-01-07T08:11:52;101985.13;;;0.85;100.00
43436;BME280;36399;51.444;-2.018;2024-01-07T08:14:18;101987.34;;;0.80;100.00
43436;BME280;36399;51.444;-2.018;2024-01-07T08:16:44;101991.50;;;0.78;100.00
43436;BME280;36399;51.444;-2.018;2024-01-07T08:19:10;101989.25;;;0.71;100.00
43436;BME280;36399;51.444;-2.018;2024-01-07T08:21:36;101999.34;;;0.68;100.00
43436;BME280;36399;51.444;-2.018;2024-01-07T08:24:02;101999.13;;;0.65;100.00
43436;BME280;36399;51.444;-2.018;2024-01-07T08:26:29;102005.38;;;0.57;100.00
43436;BME280;36399;51.444;-2.018;2024-01-07T08:28:55;102009.66;;;0.56;100.00
43436;BME280;36399;51.444;-2.018;2024-01-07T08:31:21;102008.91;;;0.47;100.00
43436;BME280;36399;51.444;-2.018;2024-01-07T08:33:47;102005.91;;;0.31;100.00
43436;BME280;36399;51.444;-2.018;2024-01-07T08:36:13;102009.28;;;0.30;100.00
43436;BME280;36399;51.444;-2.018;2024-01-07T08:38:39;102016.91;;;0.28;100.00
43436;BME280;36399;51.444;-2.018;2024-01-07T08:41:05;102013.31;;;0.26;100.00
43436;BME280;36399;51.444;-2.018;2024-01-07T08:43:31;102018.53;;;0.38;100.00
43436;BME280;36399;51.444;-2.018;2024-01-07T08:45:57;102025.56;;;0.29;100.00
43436;BME280;36399;51.444;-2.018;2024-01-07T08:48:26;102021.97;;;0.27;100.00
43436;BME280;36399;51.444;-2.018;2024-01-07T08:50:52;102033.06;;;0.26;100.00
43436;BME280;36399;51.444;-2.018;2024-01-07T08:53:18;102026.81;;;0.34;100.00
43436;BME280;36399;51.444;-2.018;2024-01-07T08:55:46;102023.63;;;0.26;100.00
43436;BME280;36399;51.444;-2.018;2024-01-07T08:58:12;102032.81;;;0.23;100.00
43436;BME280;36399;51.444;-2.018;2024-01-07T09:00:40;102039.00;;;0.25;100.00
43436;BME280;36399;51.444;-2.018;2024-01-07T09:03:08;102037.69;;;0.30;100.00
43436;BME280;36399;51.444;-2.018;2024-01-07T09:05:34;102040.22;;;0.40;100.00
43436;BME280;36399;51.444;-2.018;2024-01-07T09:08:00;102032.47;;;0.40;100.00
43436;BME280;36399;51.444;-2.018;2024-01-07T09:10:26;102032.50;;;0.52;100.00
43436;BME280;36399;51.444;-2.018;2024-01-07T09:12:55;102029.41;;;0.56;100.00
43436;BME280;36399;51.444;-2.018;2024-01-07T09:15:21;102031.00;;;0.54;100.00
43436;BME280;36399;51.444;-2.018;2024-01-07T09:17:47;102034.72;;;0.57;100.00
43436;BME280;36399;51.444;-2.018;2024-01-07T09:20:13;102034.72;;;0.57;100.00
43436;BME280;36399;51.444;-2.018;2024-01-07T09:22:39;102045.94;;;0.58;100.00
43436;BME280;36399;51.444;-2.018;2024-01-07T09:25:06;102046.06;;;0.59;100.00
43436;BME280;36399;51.444;-2.018;2024-01-07T09:27:33;102045.63;;;0.65;100.00
43436;BME280;36399;51.444;-2.018;2024-01-07T09:30:00;102053.28;;;0.63;100.00
43436;BME280;36399;51.444;-2.018;2024-01-07T09:32:26;102044.97;;;0.68;100.00
43436;BME280;36399;51.444;-2.018;2024-01-07T09:34:52;102046.78;;;0.69;100.00
43436;BME280;36399;51.444;-2.018;2024-01-07T09:37:19;102058.47;;;0.75;100.00
43436;BME280;36399;51.444;-2.018;2024-01-07T09:39:45;102068.75;;;0.85;100.00
43436;BME280;36399;51.444;-2.018;2024-01-07T09:42:13;102071.69;;;1.23;100.00
43436;BME280;36399;51.444;-2.018;2024-01-07T09:44:43;102081.00;;;1.78;100.00
43436;BME280;36399;51.444;-2.018;2024-01-07T09:47:11;102076.47;;;2.22;100.00
43436;BME280;36399;51.444;-2.018;2024-01-07T09:49:38;102071.31;;;1.87;100.00
43436;BME280;36399;51.444;-2.018;2024-01-07T09:52:05;102075.13;;;1.93;100.00
43436;BME280;36399;51.444;-2.018;2024-01-07T09:54:31;102070.28;;;1.85;100.00
43436;BME280;36399;51.444;-2.018;2024-01-07T09:57:01;102066.38;;;1.67;100.00
43436;BME280;36399;51.444;-2.018;2024-01-07T09:59:28;102063.56;;;1.64;100.00
43436;BME280;36399;51.444;-2.018;2024-01-07T10:01:56;102065.69;;;1.70;100.00
43436;BME280;36399;51.444;-2.018;2024-01-07T10:04:23;102064.13;;;1.72;100.00
43436;BME280;36399;51.444;-2.018;2024-01-07T10:06:49;102065.34;;;1.88;100.00
43436;BME280;36399;51.444;-2.018;2024-01-07T10:09:17;102068.50;;;1.84;100.00
43436;BME280;36399;51.444;-2.018;2024-01-07T10:11:43;102079.41;;;1.92;100.00
43436;BME280;36399;51.444;-2.018;2024-01-07T10:14:10;102067.25;;;2.03;100.00
43436;BME280;36399;51.444;-2.018;2024-01-07T10:16:36;102058.47;;;2.12;100.00
43436;BME280;36399;51.444;-2.018;2024-01-07T10:19:02;102059.81;;;2.07;100.00
43436;BME280;36399;51.444;-2.018;2024-01-07T10:21:28;102064.56;;;2.13;100.00
43436;BME280;36399;51.444;-2.018;2024-01-07T10:24:10;102061.38;;;2.17;100.00
43436;BME280;36399;51.444;-2.018;2024-01-07T10:26:42;102054.63;;;2.19;100.00
43436;BME280;36399;51.444;-2.018;2024-01-07T10:29:08;102058.09;;;2.31;100.00
43436;BME280;36399;51.444;-2.018;2024-01-07T10:31:35;102052.78;;;2.30;100.00
43436;BME280;36399;51.444;-2.018;2024-01-07T10:34:07;102056.31;;;2.55;100.00
43436;BME280;36399;51.444;-2.018;2024-01-07T10:36:33;102055.31;;;2.65;100.00
43436;BME280;36399;51.444;-2.018;2024-01-07T10:38:59;102041.44;;;2.52;100.00
43436;BME280;36399;51.444;-2.018;2024-01-07T10:41:26;102044.25;;;2.56;100.00
43436;BME280;36399;51.444;-2.018;2024-01-07T10:43:53;102047.03;;;2.70;100.00
43436;BME280;36399;51.444;-2.018;2024-01-07T10:46:20;102051.34;;;2.70;100.00
43436;BME280;36399;51.444;-2.018;2024-01-07T10:49:04;102039.16;;;2.69;100.00
43436;BME280;36399;51.444;-2.018;2024-01-07T10:51:40;102032.13;;;2.79;100.00
43436;BME280;36399;51.444;-2.018;2024-01-07T10:54:08;102036.06;;;2.99;100.00
43436;BME280;36399;51.444;-2.018;2024-01-07T10:56:45;102025.06;;;2.90;100.00
43436;BME280;36399;51.444;-2.018;2024-01-07T10:59:11;102025.06;;;2.90;100.00
43436;BME280;36399;51.444;-2.018;2024-01-07T11:01:37;102032.06;;;2.91;100.00
43436;BME280;36399;51.444;-2.018;2024-01-07T11:04:20;102024.69;;;2.97;100.00
43436;BME280;36399;51.444;-2.018;2024-01-07T11:06:59;102014.72;;;3.03;100.00
43436;BME280;36399;51.444;-2.018;2024-01-07T11:09:38;102019.31;;;3.07;100.00
43436;BME280;36399;51.444;-2.018;2024-01-07T11:12:11;102019.69;;;3.25;100.00
43436;BME280;36399;51.444;-2.018;2024-01-07T11:14:38;102019.00;;;3.28;100.00
43436;BME280;36399;51.444;-2.018;2024-01-07T11:17:06;102013.31;;;3.33;100.00
43436;BME280;36399;51.444;-2.018;2024-01-07T11:19:33;102017.59;;;3.33;100.00
43436;BME280;36399;51.444;-2.018;2024-01-07T11:22:24;102014.00;;;3.31;100.00
43436;BME280;36399;51.444;-2.018;2024-01-07T11:24:52;102017.41;;;3.43;100.00
43436;BME280;36399;51.444;-2.018;2024-01-07T11:27:18;102004.44;;;3.43;100.00
43436;BME280;36399;51.444;-2.018;2024-01-07T11:29:44;102012.41;;;3.46;100.00
43436;BME280;36399;51.444;-2.018;2024-01-07T11:32:12;102017.13;;;3.52;100.00
43436;BME280;36399;51.444;-2.018;2024-01-07T11:34:43;102007.66;;;3.65;100.00
43436;BME280;36399;51.444;-2.018;2024-01-07T11:37:10;102004.47;;;3.69;100.00
43436;BME280;36399;51.444;-2.018;2024-01-07T11:39:43;101999.25;;;3.56;100.00
43436;BME280;36399;51.444;-2.018;2024-01-07T11:42:10;102002.22;;;3.49;100.00
43436;BME280;36399;51.444;-2.018;2024-01-07T11:44:37;101989.25;;;3.49;100.00
43436;BME280;36399;51.444;-2.018;2024-01-07T11:47:10;101981.56;;;3.51;100.00
43436;BME280;36399;51.444;-2.018;2024-01-07T11:49:36;101985.47;;;3.57;100.00
43436;BME280;36399;51.444;-2.018;2024-01-07T11:52:04;101988.69;;;3.66;100.00
43436;BME280;36399;51.444;-2.018;2024-01-07T11:54:31;101980.06;;;3.80;100.00
43436;BME280;36399;51.444;-2.018;2024-01-07T11:56:57;101972.19;;;3.79;100.00
43436;BME280;36399;51.444;-2.018;2024-01-07T11:59:23;101980.47;;;3.73;100.00
43436;BME280;36399;51.444;-2.018;2024-01-07T12:01:49;101975.00;;;3.69;100.00
43436;BME280;36399;51.444;-2.018;2024-01-07T12:04:15;101973.50;;;3.72;100.00
43436;BME280;36399;51.444;-2.018;2024-01-07T12:06:41;101965.91;;;3.75;100.00
43436;BME280;36399;51.444;-2.018;2024-01-07T12:09:07;101972.03;;;4.04;100.00
43436;BME280;36399;51.444;-2.018;2024-01-07T12:11:33;101964.97;;;4.29;100.00
43436;BME280;36399;51.444;-2.018;2024-01-07T12:13:59;101965.94;;;4.03;100.00
43436;BME280;36399;51.444;-2.018;2024-01-07T12:16:26;101956.00;;;4.11;100.00
43436;BME280;36399;51.444;-2.018;2024-01-07T12:18:52;101955.91;;;4.09;100.00
43436;BME280;36399;51.444;-2.018;2024-01-07T12:21:19;101961.38;;;4.27;100.00
43436;BME280;36399;51.444;-2.018;2024-01-07T12:23:49;101957.91;;;4.13;100.00
43436;BME280;36399;51.444;-2.018;2024-01-07T12:26:16;101953.59;;;4.27;100.00
43436;BME280;36399;51.444;-2.018;2024-01-07T12:28:45;101948.22;;;4.11;100.00
43436;BME280;36399;51.444;-2.018;2024-01-07T12:31:11;101948.22;;;4.11;100.00
43436;BME280;36399;51.444;-2.018;2024-01-07T12:33:37;101946.22;;;4.07;100.00
43436;BME280;36399;51.444;-2.018;2024-01-07T12:36:03;101951.00;;;4.14;100.00
43436;BME280;36399;51.444;-2.018;2024-01-07T12:38:30;101952.13;;;4.18;100.00